Аэропорт: Толмачёво. Новосибирск

ICAO: UNNT

METAR:
2019/01/21 23:00
UNNT 212300Z 25005MPS 4200 -SHSN OVC043CB M03/M04 Q1020 R25/490242 R34/492032 NOSIG RMK QFE755/1007
METAR:
2019/01/21 21:21
TAF UNNT 212000Z 2121/2221 26006G13MPS 9999 -SHSN DRSN BKN040CB 
      TEMPO 2121/2203 3100 -SHSN BKN016CB 
      BECMG 2209/2212 21003G08MPS NSW